createdAt,value
2023-05-21T00:00:26.728Z,17.20
2023-05-21T02:38:10.842Z,16.80
2023-05-21T02:51:00.176Z,16.80
2023-05-21T02:56:51.568Z,16.80
2023-05-21T03:08:59.517Z,16.70
2023-05-21T03:12:11.211Z,16.60
2023-05-21T03:14:56.641Z,16.60
2023-05-21T03:18:33.423Z,16.60
2023-05-21T03:21:26.682Z,16.60
2023-05-21T03:27:51.268Z,16.60
2023-05-21T03:31:18.987Z,16.60
2023-05-21T03:33:57.690Z,16.50
2023-05-21T03:41:49.812Z,16.50
2023-05-21T03:44:26.593Z,16.50
2023-05-21T03:47:20.849Z,16.50
2023-05-21T03:50:59.450Z,16.50
2023-05-21T03:53:48.949Z,16.50
2023-05-21T03:56:27.074Z,16.60
2023-05-21T03:59:26.751Z,16.60
2023-05-21T04:02:30.703Z,16.60
2023-05-21T04:05:14.647Z,16.60
2023-05-21T04:07:59.905Z,16.60
2023-05-21T04:10:42.362Z,16.70
2023-05-21T04:16:59.822Z,16.80
2023-05-21T04:20:10.470Z,16.80
2023-05-21T04:22:56.165Z,16.90
2023-05-21T04:25:38.497Z,17.00
2023-05-21T04:28:18.007Z,17.00
2023-05-21T04:30:59.587Z,17.10
2023-05-21T04:34:04.447Z,17.30
2023-05-21T04:36:41.316Z,17.40
2023-05-21T04:39:22.699Z,17.60
2023-05-21T04:41:56.662Z,17.80
2023-05-21T04:44:43.499Z,17.90
2023-05-21T04:47:37.389Z,18.00
2023-05-21T04:50:25.214Z,18.10
2023-05-21T04:53:37.566Z,18.10
2023-05-21T04:56:28.202Z,18.10
2023-05-21T05:05:11.413Z,18.20
2023-05-21T05:08:04.808Z,18.30
2023-05-21T05:10:57.078Z,18.30
2023-05-21T05:28:02.661Z,18.60
2023-05-21T05:36:49.915Z,18.60
2023-05-21T05:39:20.370Z,18.80
2023-05-21T05:42:33.308Z,18.90
2023-05-21T05:45:29.884Z,19.00
2023-05-21T05:48:04.462Z,18.90
2023-05-21T05:51:01.184Z,18.80
2023-05-21T05:56:41.511Z,18.60
2023-05-21T05:59:21.448Z,18.70
2023-05-21T06:01:55.738Z,18.60
2023-05-21T06:04:30.444Z,18.50
2023-05-21T06:10:46.076Z,18.50
2023-05-21T06:17:08.699Z,18.40
2023-05-21T06:19:50.397Z,18.30
2023-05-21T06:22:39.644Z,18.30
2023-05-21T06:25:13.796Z,18.30
2023-05-21T06:28:30.973Z,18.30
2023-05-21T06:31:06.832Z,18.40
2023-05-21T06:33:39.068Z,18.40
2023-05-21T06:36:10.419Z,18.60
2023-05-21T06:38:56.245Z,18.70
2023-05-21T06:41:26.714Z,18.80
2023-05-21T06:44:28.305Z,18.90
2023-05-21T06:47:19.075Z,19.10
2023-05-21T06:50:06.896Z,19.30
2023-05-21T06:53:35.486Z,19.60
2023-05-21T06:59:34.946Z,20.00
2023-05-21T07:07:09.179Z,20.50
2023-05-21T07:09:41.517Z,20.80
2023-05-21T07:13:11.575Z,21.10
2023-05-21T07:15:39.196Z,21.30
2023-05-21T07:18:13.998Z,21.50
2023-05-21T07:20:41.347Z,21.80
2023-05-21T07:23:30.957Z,21.90
2023-05-21T07:26:15.434Z,22.20
2023-05-21T07:28:51.202Z,22.40
2023-05-21T07:38:40.317Z,22.40
2023-05-21T07:41:25.632Z,22.20
2023-05-21T07:43:56.060Z,22.00
2023-05-21T07:46:35.195Z,21.90
2023-05-21T07:52:40.417Z,21.90
2023-05-21T07:55:12.206Z,22.20
2023-05-21T07:58:10.369Z,22.50
2023-05-21T08:01:19.965Z,22.80
2023-05-21T08:07:09.404Z,23.20
2023-05-21T08:09:36.897Z,23.30
2023-05-21T08:12:04.985Z,23.20
2023-05-21T08:14:33.934Z,23.20
2023-05-21T08:17:03.972Z,23.30
2023-05-21T08:19:35.839Z,23.30
2023-05-21T08:22:08.426Z,23.30
2023-05-21T08:25:00.907Z,23.30
2023-05-21T08:27:28.115Z,23.30
2023-05-21T08:29:55.227Z,23.30
2023-05-21T08:32:30.481Z,23.20
2023-05-21T08:34:58.329Z,23.10
2023-05-21T08:37:49.224Z,23.10
2023-05-21T08:40:24.204Z,23.00
2023-05-21T08:42:53.341Z,22.90
2023-05-21T08:45:42.754Z,23.00
2023-05-21T08:48:14.980Z,23.10
2023-05-21T08:50:43.134Z,23.20
2023-05-21T08:53:27.206Z,23.40
2023-05-21T08:55:57.565Z,23.60
2023-05-21T08:58:33.898Z,23.80
2023-05-21T09:01:01.724Z,23.90
2023-05-21T09:03:33.331Z,24.20
2023-05-21T09:06:00.934Z,24.50
2023-05-21T09:08:35.329Z,24.80
2023-05-21T09:11:12.797Z,24.90
2023-05-21T09:13:47.663Z,25.10
2023-05-21T09:16:22.133Z,25.30
2023-05-21T09:18:49.819Z,25.30
2023-05-21T09:21:27.877Z,25.20
2023-05-21T09:24:06.576Z,25.00
2023-05-21T09:26:34.210Z,24.80
2023-05-21T09:29:04.746Z,24.80
2023-05-21T09:31:33.092Z,24.70
2023-05-21T09:34:01.437Z,24.60
2023-05-21T09:36:29.650Z,24.50
2023-05-21T09:39:00.082Z,24.50
2023-05-21T09:41:37.059Z,24.60
2023-05-21T09:44:05.425Z,24.80
2023-05-21T09:46:40.584Z,25.00
2023-05-21T09:49:23.731Z,25.20
2023-05-21T09:51:54.753Z,25.20
2023-05-21T09:54:22.671Z,25.30
2023-05-21T09:56:51.198Z,25.50
2023-05-21T09:59:18.332Z,25.70
2023-05-21T10:01:46.144Z,25.90
2023-05-21T10:04:14.083Z,26.00
2023-05-21T10:06:45.666Z,26.10
2023-05-21T10:09:15.770Z,26.20
2023-05-21T10:11:45.126Z,26.30
2023-05-21T10:14:17.698Z,26.30
2023-05-21T10:16:51.282Z,26.10
2023-05-21T10:19:19.755Z,26.20
2023-05-21T10:21:47.976Z,26.40
2023-05-21T10:24:17.147Z,26.40
2023-05-21T10:26:46.399Z,26.50
2023-05-21T10:32:34.974Z,26.80
2023-05-21T10:35:09.416Z,26.90
2023-05-21T10:37:39.096Z,26.80
2023-05-21T10:40:08.970Z,26.90
2023-05-21T10:46:03.802Z,27.20
2023-05-21T10:49:08.527Z,27.30
2023-05-21T10:52:26.217Z,27.20
2023-05-21T10:54:54.745Z,26.80
2023-05-21T11:00:13.202Z,26.50
2023-05-21T11:03:24.047Z,26.70
2023-05-21T11:06:17.550Z,26.70
2023-05-21T11:12:11.045Z,27.20
2023-05-21T11:14:48.115Z,27.40
2023-05-21T11:20:48.554Z,27.60
2023-05-21T11:23:20.485Z,27.60
2023-05-21T11:26:07.211Z,27.80
2023-05-21T11:28:35.455Z,27.90
2023-05-21T11:31:25.814Z,28.00
2023-05-21T11:34:11.339Z,27.90
2023-05-21T11:36:39.422Z,28.00
2023-05-21T11:39:24.939Z,27.90
2023-05-21T11:42:03.133Z,27.70
2023-05-21T11:44:42.074Z,27.70
2023-05-21T11:47:11.178Z,27.70
2023-05-21T11:49:39.134Z,27.80
2023-05-21T11:52:07.878Z,27.90
2023-05-21T11:54:48.302Z,28.10
2023-05-21T11:57:19.629Z,28.20
2023-05-21T11:59:54.153Z,28.20
2023-05-21T12:02:25.486Z,28.40
2023-05-21T12:04:53.049Z,28.40
2023-05-21T12:07:20.847Z,28.40
2023-05-21T12:09:51.506Z,28.50
2023-05-21T12:12:23.942Z,28.70
2023-05-21T12:14:51.829Z,28.80
2023-05-21T12:17:20.675Z,28.80
2023-05-21T12:19:49.561Z,28.90
2023-05-21T12:22:16.790Z,29.00
2023-05-21T12:24:47.309Z,29.20
2023-05-21T12:27:17.155Z,29.30
2023-05-21T12:29:46.655Z,29.30
2023-05-21T12:32:17.831Z,29.20
2023-05-21T12:34:51.481Z,29.30
2023-05-21T12:37:32.685Z,29.50
2023-05-21T12:40:01.294Z,29.60
2023-05-21T12:42:35.028Z,29.40
2023-05-21T12:45:10.013Z,29.40
2023-05-21T12:47:37.329Z,29.50
2023-05-21T12:50:08.564Z,29.30
2023-05-21T12:52:35.672Z,29.40
2023-05-21T12:55:02.910Z,29.40
2023-05-21T12:57:38.960Z,29.40
2023-05-21T13:00:08.960Z,29.20
2023-05-21T13:02:41.829Z,29.00
2023-05-21T13:05:11.283Z,29.10
2023-05-21T13:07:39.698Z,29.30
2023-05-21T13:10:07.708Z,29.50
2023-05-21T13:12:35.495Z,29.40
2023-05-21T13:15:08.626Z,29.40
2023-05-21T13:17:36.041Z,29.40
2023-05-21T13:20:32.456Z,29.40
2023-05-21T13:22:59.530Z,29.20
2023-05-21T13:25:30.473Z,29.00
2023-05-21T13:27:59.674Z,28.90
2023-05-21T13:30:26.853Z,28.80
2023-05-21T13:32:55.773Z,28.60
2023-05-21T13:35:22.913Z,28.60
2023-05-21T13:37:50.022Z,28.70
2023-05-21T13:40:17.338Z,28.90
2023-05-21T13:42:46.136Z,29.10
2023-05-21T13:45:19.622Z,29.50
2023-05-21T13:47:49.514Z,29.40
2023-05-21T13:50:18.280Z,28.90
2023-05-21T13:52:46.365Z,28.30
2023-05-21T13:55:16.018Z,28.20
2023-05-21T13:57:43.815Z,28.40
2023-05-21T14:00:14.213Z,28.70
2023-05-21T14:02:44.834Z,29.00
2023-05-21T14:05:13.619Z,29.30
2023-05-21T14:07:40.784Z,29.60
2023-05-21T14:10:08.413Z,29.90
2023-05-21T14:12:35.537Z,29.90
2023-05-21T14:15:02.545Z,29.90
2023-05-21T14:17:29.533Z,30.10
2023-05-21T14:19:56.508Z,30.00
2023-05-21T14:22:23.724Z,30.00
2023-05-21T14:24:51.474Z,30.10
2023-05-21T14:27:18.463Z,30.20
2023-05-21T14:29:45.533Z,30.20
2023-05-21T14:32:12.666Z,30.30
2023-05-21T14:34:40.450Z,30.30
2023-05-21T14:37:07.553Z,30.60
2023-05-21T14:39:34.592Z,30.50
2023-05-21T14:42:04.757Z,30.60
2023-05-21T14:44:32.548Z,30.80
2023-05-21T14:46:59.807Z,30.90
2023-05-21T14:49:27.005Z,30.80
2023-05-21T14:51:54.027Z,30.80
2023-05-21T14:54:21.121Z,30.90
2023-05-21T14:56:48.171Z,30.90
2023-05-21T14:59:15.284Z,31.00
2023-05-21T15:01:42.428Z,30.90
2023-05-21T15:04:09.975Z,31.10
2023-05-21T15:06:38.621Z,30.90
2023-05-21T15:09:05.748Z,30.90
2023-05-21T15:11:34.174Z,30.90
2023-05-21T15:14:01.116Z,30.70
2023-05-21T15:16:28.273Z,30.10
2023-05-21T15:18:57.550Z,29.60
2023-05-21T15:21:27.287Z,29.30
2023-05-21T15:23:55.189Z,28.90
2023-05-21T15:26:22.782Z,28.90
2023-05-21T15:28:49.683Z,29.20
2023-05-21T15:31:16.936Z,29.50
2023-05-21T15:33:44.025Z,29.80
2023-05-21T15:36:11.258Z,29.70
2023-05-21T15:38:38.441Z,30.00
2023-05-21T15:41:06.337Z,30.00
2023-05-21T15:43:36.900Z,30.30
2023-05-21T15:46:04.362Z,30.60
2023-05-21T15:48:31.323Z,30.80
2023-05-21T15:50:58.437Z,30.90
2023-05-21T15:53:25.598Z,31.10
2023-05-21T15:55:52.595Z,31.40
2023-05-21T15:58:19.630Z,31.60
2023-05-21T16:00:46.642Z,31.60
2023-05-21T16:03:13.959Z,32.00
2023-05-21T16:05:41.079Z,32.60
2023-05-21T16:08:10.868Z,33.10
2023-05-21T16:10:40.077Z,33.60
2023-05-21T16:13:07.223Z,34.20
2023-05-21T16:15:34.761Z,34.10
2023-05-21T16:18:01.929Z,33.80
2023-05-21T16:20:30.822Z,33.70
2023-05-21T16:22:57.972Z,33.40
2023-05-21T16:25:24.942Z,33.00
2023-05-21T16:27:52.059Z,33.40
2023-05-21T16:30:19.268Z,33.80
2023-05-21T16:32:46.335Z,34.30
2023-05-21T16:35:13.563Z,35.10
2023-05-21T16:37:40.804Z,35.50
2023-05-21T16:40:08.373Z,35.70
2023-05-21T16:42:35.348Z,35.90
2023-05-21T16:45:02.462Z,35.70
2023-05-21T16:47:29.661Z,36.00
2023-05-21T16:49:56.763Z,36.00
2023-05-21T16:52:24.359Z,35.90
2023-05-21T16:54:51.589Z,35.60
2023-05-21T16:57:18.787Z,35.30
2023-05-21T16:59:46.200Z,34.90
2023-05-21T17:02:13.974Z,35.10
2023-05-21T17:04:41.211Z,35.30
2023-05-21T17:07:08.116Z,34.90
2023-05-21T17:09:39.218Z,35.20
2023-05-21T17:12:06.543Z,35.40
2023-05-21T17:14:34.900Z,35.10
2023-05-21T17:17:02.589Z,34.40
2023-05-21T17:19:29.742Z,33.20
2023-05-21T17:21:57.295Z,31.90
2023-05-21T17:24:24.463Z,30.80
2023-05-21T17:26:52.842Z,29.80
2023-05-21T17:29:19.997Z,29.20
2023-05-21T17:31:47.139Z,28.60
2023-05-21T17:34:14.130Z,28.20
2023-05-21T17:36:41.146Z,27.80
2023-05-21T17:39:08.473Z,27.50
2023-05-21T17:41:35.511Z,27.30
2023-05-21T17:44:02.457Z,27.10
2023-05-21T17:46:29.642Z,26.90
2023-05-21T17:48:56.940Z,26.80
2023-05-21T17:51:23.978Z,26.70
2023-05-21T17:53:51.077Z,26.50
2023-05-21T17:56:18.230Z,26.30
2023-05-21T17:58:45.369Z,26.30
2023-05-21T18:01:12.548Z,26.20
2023-05-21T18:03:39.762Z,26.00
2023-05-21T18:06:08.765Z,25.90
2023-05-21T18:08:36.739Z,25.80
2023-05-21T18:11:03.747Z,25.60
2023-05-21T18:13:30.793Z,25.50
2023-05-21T18:15:58.658Z,25.40
2023-05-21T18:18:25.832Z,25.30
2023-05-21T18:20:53.280Z,25.20
2023-05-21T18:23:21.260Z,25.10
2023-05-21T18:25:49.924Z,25.10
2023-05-21T18:28:17.022Z,25.00
2023-05-21T18:30:44.099Z,24.90
2023-05-21T18:33:12.611Z,24.80
2023-05-21T18:35:39.636Z,24.70
2023-05-21T18:38:09.991Z,24.50
2023-05-21T18:40:38.047Z,24.40
2023-05-21T18:43:06.452Z,24.30
2023-05-21T18:45:34.156Z,24.10
2023-05-21T18:48:02.977Z,23.90
2023-05-21T18:50:31.765Z,23.80
2023-05-21T18:52:59.017Z,23.70
2023-05-21T18:55:26.585Z,23.60
2023-05-21T18:57:54.748Z,23.50
2023-05-21T19:00:22.077Z,23.40
2023-05-21T19:02:49.421Z,23.40
2023-05-21T19:05:16.857Z,23.30
2023-05-21T19:07:43.993Z,23.20
2023-05-21T19:10:12.371Z,23.00
2023-05-21T19:12:39.740Z,22.90
2023-05-21T19:15:07.688Z,22.80
2023-05-21T19:17:36.436Z,22.80
2023-05-21T19:20:05.457Z,22.70
2023-05-21T19:22:32.945Z,22.60
2023-05-21T19:25:00.793Z,22.60
2023-05-21T19:27:29.412Z,22.60
2023-05-21T19:29:56.442Z,22.50
2023-05-21T19:32:23.855Z,22.50
2023-05-21T19:34:52.582Z,22.40
2023-05-21T19:37:19.661Z,22.30
2023-05-21T19:39:50.033Z,22.20
2023-05-21T19:42:21.479Z,22.20
2023-05-21T19:44:48.606Z,22.20
2023-05-21T19:47:15.670Z,22.20
2023-05-21T19:49:42.815Z,22.10
2023-05-21T19:52:10.546Z,22.10
2023-05-21T19:54:37.690Z,22.00
2023-05-21T19:57:04.908Z,22.00
2023-05-21T19:59:31.943Z,22.00
2023-05-21T20:01:59.055Z,21.90
2023-05-21T20:04:26.176Z,21.90
2023-05-21T20:06:53.384Z,21.80
2023-05-21T20:09:20.601Z,21.80
2023-05-21T20:11:48.352Z,21.70
2023-05-21T20:14:15.579Z,21.60
2023-05-21T20:16:42.780Z,21.60
2023-05-21T20:19:10.909Z,21.60
2023-05-21T20:21:38.128Z,21.60
2023-05-21T20:24:05.768Z,21.60
2023-05-21T20:26:35.112Z,21.60
2023-05-21T20:29:02.421Z,21.60
2023-05-21T20:31:29.670Z,21.50
2023-05-21T20:34:10.441Z,21.50
2023-05-21T20:36:48.467Z,21.40
2023-05-21T20:39:16.757Z,21.40
2023-05-21T20:41:51.121Z,21.40
2023-05-21T20:44:37.831Z,21.40
2023-05-21T21:12:32.190Z,21.30
2023-05-21T22:13:29.893Z,20.80
2023-05-21T22:16:35.638Z,20.80
2023-05-21T22:23:58.254Z,20.90
2023-05-21T22:27:06.580Z,20.90
2023-05-21T22:29:45.559Z,20.90
2023-05-21T22:32:41.901Z,20.90
2023-05-21T22:35:36.535Z,20.80
2023-05-21T22:38:03.847Z,20.80
2023-05-21T22:40:50.448Z,20.80
2023-05-21T22:43:24.973Z,20.80
2023-05-21T22:45:55.734Z,21.00
2023-05-21T22:48:23.303Z,21.10
2023-05-21T22:50:57.643Z,21.20
2023-05-21T22:53:29.346Z,21.30
2023-05-21T22:56:11.133Z,21.40
2023-05-21T22:59:13.935Z,21.50
2023-05-21T23:02:18.071Z,21.70
2023-05-21T23:04:46.074Z,21.80
2023-05-21T23:07:33.286Z,21.80
2023-05-21T23:10:01.621Z,21.90
2023-05-21T23:12:30.556Z,22.00
2023-05-21T23:15:07.604Z,22.10
2023-05-21T23:17:40.771Z,22.10
2023-05-21T23:20:09.141Z,22.00
2023-05-21T23:22:37.941Z,22.00
2023-05-21T23:25:38.530Z,22.00
2023-05-21T23:28:09.617Z,22.00
2023-05-21T23:30:38.084Z,22.10
2023-05-21T23:33:06.890Z,22.10
2023-05-21T23:35:34.819Z,22.00
2023-05-21T23:38:02.839Z,22.00
2023-05-21T23:40:31.407Z,22.00
2023-05-21T23:43:05.200Z,22.00
2023-05-21T23:45:35.515Z,22.00
2023-05-21T23:48:06.312Z,22.10
2023-05-21T23:50:39.935Z,22.20
2023-05-21T23:53:19.141Z,22.20
2023-05-21T23:58:46.210Z,22.20
